Details From GCXO - Tenerife Norte - Los Rodeos
To GCHI - Hierro
Flight Number -
Tags generated
Created
Modified
Stats Distance 91 nm / 169 km
Max Altitude 0 ft / 0 m
Waypoints 3
Social Downloads 3
Likes 0
Share VATSIM

Download

Looking for another format? Having issues loading an existing format? Contact us
Advertisement - Login to hide

Notes

None

Route

GCXO GOMER GCHI

ID Type Via Altitude Latitude Longitude Leg Dist Tot Dist Heading (true) Name
O GCXO APT - 0 ft / 0 m 28.48266˚ -16.34154˚ - 0 nm - Tenerife Norte - Los Rodeos
GOMER FIX - 0 ft / 0 m 28.00000˚ -17.33333˚ 59 nm 59 nm 241° / 241° -
O GCHI APT - 0 ft / 0 m 27.81485˚ -17.88705˚ 31 nm 91 nm 249° / 249° Hierro

Altitude Profile

Advertisement - Login to hide

GCXO

Details ICAO GCXO (TFN)
Name Tenerife Norte - Los Rodeos
Region Canary Islands
Timezone Atlantic/Canary (UTC+1.0)
Stats Elevation 2,076 ft / 633 m (AMSL)
Location 28.482656° -16.341541°
Runways 1
Magnetic Variation 4.952° W

METAR

GCXO 211500Z 32013KT 280V010 9999 FEW027 18/09 Q1018 NOSIG

Decode

TAF

TAF GCXO 211400Z 2115/2215 31013KT 9999 SCT010 TX19/2214Z TN12/2205Z PROB30 TEMPO 2115/2120 31015G26KT

Decode

Departure Runways

ID Width Length Bearing (true) Bearing (mag) Surface Threshold Offset Overrun Length
12 148 ft / 45 m 11,165 ft / 3,403 m 110.67° 115.62° Asphalt 0 ft / 0 m 197 ft / 60 m
30 148 ft / 45 m 11,165 ft / 3,403 m 290.69° 295.64° Asphalt 0 ft / 0 m 197 ft / 60 m

GCHI

Details ICAO GCHI (VDE)
Name Hierro
Region Canary Islands
Timezone Atlantic/Canary (UTC+1.0)
Stats Elevation 337 ft / 103 m (AMSL)
Location 27.814848° -17.887052°
Runways 1
Magnetic Variation 5.578° W

METAR

GCHI 211500Z 36011KT 320V050 9999 FEW045 23/12 Q1017

Decode

TAF

TAF GCHI 211400Z 2115/2215 35012KT 9999 FEW030 TX22/2214Z TN18/2205Z

Decode

Destination Runways

ID Width Length Bearing (true) Bearing (mag) Surface Threshold Offset Overrun Length
16 98 ft / 30 m 4,110 ft / 1,253 m 152.71° 158.29° Asphalt 0 ft / 0 m 112 ft / 34 m
34 98 ft / 30 m 4,110 ft / 1,253 m 332.71° 338.29° Asphalt 0 ft / 0 m 105 ft / 32 m

Popular Alternatives